createdAt,value
2023-04-25T00:02:09.851Z,2.84
2023-04-25T00:04:39.481Z,3.27
2023-04-25T00:07:06.468Z,3.10
2023-04-25T00:09:33.270Z,2.99
2023-04-25T00:12:00.000Z,3.34
2023-04-25T00:14:26.835Z,2.87
2023-04-25T00:16:53.491Z,3.42
2023-04-25T00:19:20.397Z,3.06
2023-04-25T00:21:47.439Z,3.06
2023-04-25T00:24:14.120Z,3.19
2023-04-25T00:26:40.971Z,3.15
2023-04-25T00:29:07.696Z,3.20
2023-04-25T00:31:34.448Z,2.95
2023-04-25T00:34:01.353Z,3.12
2023-04-25T00:36:28.655Z,3.03
2023-04-25T00:38:56.173Z,3.00
2023-04-25T00:41:23.458Z,2.82
2023-04-25T00:43:51.339Z,2.94
2023-04-25T00:46:18.611Z,2.98
2023-04-25T00:48:45.397Z,2.57
2023-04-25T00:51:16.964Z,2.87
2023-04-25T00:53:44.097Z,2.66
2023-04-25T00:56:10.991Z,2.63
2023-04-25T00:58:39.423Z,3.06
2023-04-25T01:01:07.820Z,2.86
2023-04-25T01:03:36.679Z,2.99
2023-04-25T01:06:04.045Z,3.24
2023-04-25T01:08:31.426Z,2.90
2023-04-25T01:10:58.118Z,2.59
2023-04-25T01:13:24.907Z,3.03
2023-04-25T01:15:51.695Z,2.50
2023-04-25T01:18:20.230Z,2.73
2023-04-25T01:20:48.195Z,2.66
2023-04-25T01:23:15.450Z,3.15
2023-04-25T01:25:42.309Z,2.96
2023-04-25T01:28:09.175Z,3.08
2023-04-25T01:30:36.638Z,3.01
2023-04-25T01:33:06.425Z,2.69
2023-04-25T01:35:33.286Z,2.90
2023-04-25T01:38:00.551Z,2.45
2023-04-25T01:40:28.608Z,2.60
2023-04-25T01:42:55.833Z,2.86
2023-04-25T01:45:23.072Z,2.79
2023-04-25T01:47:51.084Z,2.48
2023-04-25T01:50:20.419Z,2.65
2023-04-25T01:52:47.170Z,2.73
2023-04-25T01:55:13.939Z,2.41
2023-04-25T01:57:40.924Z,2.27
2023-04-25T02:00:10.065Z,2.56
2023-04-25T02:02:37.154Z,2.82
2023-04-25T02:05:04.132Z,2.78
2023-04-25T02:07:30.917Z,2.40
2023-04-25T02:09:57.801Z,2.33
2023-04-25T02:12:25.532Z,2.77
2023-04-25T02:14:52.187Z,2.65
2023-04-25T02:17:19.050Z,2.56
2023-04-25T02:19:46.120Z,2.39
2023-04-25T02:22:12.753Z,2.31
2023-04-25T02:24:39.627Z,2.70
2023-04-25T02:27:07.074Z,2.60
2023-04-25T02:29:33.726Z,2.36
2023-04-25T02:32:00.413Z,2.81
2023-04-25T02:34:27.122Z,2.54
2023-04-25T02:36:56.196Z,2.38
2023-04-25T02:39:23.433Z,2.44
2023-04-25T02:41:50.122Z,2.49
2023-04-25T02:44:16.838Z,2.46
2023-04-25T02:46:43.918Z,2.42
2023-04-25T02:49:10.759Z,2.69
2023-04-25T02:51:37.399Z,2.09
2023-04-25T02:54:04.423Z,2.14
2023-04-25T02:56:31.148Z,2.07
2023-04-25T02:58:57.796Z,2.03
2023-04-25T03:01:24.680Z,2.32
2023-04-25T03:03:51.573Z,2.06
2023-04-25T03:06:18.483Z,2.21
2023-04-25T03:08:45.248Z,1.86
2023-04-25T03:11:11.956Z,2.46
2023-04-25T03:13:38.714Z,2.23
2023-04-25T03:16:05.881Z,2.22
2023-04-25T03:18:32.696Z,2.49
2023-04-25T03:20:59.509Z,2.16
2023-04-25T03:23:27.094Z,2.07
2023-04-25T03:25:53.844Z,2.40
2023-04-25T03:28:21.291Z,2.38
2023-04-25T03:30:48.041Z,2.31
2023-04-25T03:33:14.791Z,2.42
2023-04-25T03:35:41.534Z,1.89
2023-04-25T03:38:08.248Z,2.25
2023-04-25T03:40:35.015Z,2.46
2023-04-25T03:43:01.715Z,2.02
2023-04-25T03:45:28.444Z,2.00
2023-04-25T03:47:55.195Z,2.09
2023-04-25T03:50:21.936Z,2.06
2023-04-25T03:52:48.680Z,1.99
2023-04-25T03:55:15.532Z,2.04
2023-04-25T03:57:42.179Z,2.05
2023-04-25T04:00:09.290Z,2.32
2023-04-25T04:02:37.700Z,1.80
2023-04-25T04:05:05.289Z,2.04
2023-04-25T04:07:33.989Z,2.07
2023-04-25T04:10:00.900Z,1.83
2023-04-25T04:12:27.567Z,1.77
2023-04-25T04:14:54.251Z,2.37
2023-04-25T04:17:20.890Z,2.20
2023-04-25T04:19:47.553Z,2.18
2023-04-25T04:22:14.537Z,2.23
2023-04-25T04:24:41.212Z,2.35
2023-04-25T04:27:07.879Z,2.09
2023-04-25T04:29:34.580Z,2.12
2023-04-25T04:32:02.204Z,2.01
2023-04-25T04:34:28.855Z,1.92
2023-04-25T04:36:56.142Z,2.05
2023-04-25T04:39:23.328Z,1.88
2023-04-25T04:41:50.010Z,1.81
2023-04-25T04:44:16.713Z,2.19
2023-04-25T04:46:43.658Z,1.76
2023-04-25T04:49:11.616Z,2.23
2023-04-25T04:51:39.260Z,1.77
2023-04-25T04:54:05.960Z,2.09
2023-04-25T04:56:33.408Z,2.04
2023-04-25T04:59:00.807Z,2.05
2023-04-25T05:01:27.812Z,2.21
2023-04-25T05:03:55.401Z,2.23
2023-04-25T05:06:22.452Z,2.00
2023-04-25T05:08:50.154Z,2.37
2023-04-25T05:11:16.885Z,1.79
2023-04-25T05:13:43.605Z,2.16
2023-04-25T05:16:10.329Z,2.13
2023-04-25T05:18:37.422Z,2.50
2023-04-25T05:21:04.259Z,2.39
2023-04-25T05:23:33.239Z,2.35
2023-04-25T05:26:00.919Z,2.33
2023-04-25T05:28:27.644Z,2.20
2023-04-25T05:30:54.310Z,2.41
2023-04-25T05:33:21.142Z,2.26
2023-04-25T05:35:47.975Z,2.73
2023-04-25T05:38:14.697Z,2.83
2023-04-25T05:40:41.891Z,2.32
2023-04-25T05:43:08.725Z,2.70
2023-04-25T05:45:35.657Z,2.66
2023-04-25T05:48:02.615Z,2.63
2023-04-25T05:50:29.438Z,3.19
2023-04-25T05:52:56.146Z,3.34
2023-04-25T05:55:23.009Z,3.24
2023-04-25T05:57:51.513Z,3.34
2023-04-25T06:00:19.981Z,3.59
2023-04-25T06:02:46.916Z,3.40
2023-04-25T06:05:13.949Z,3.71
2023-04-25T06:07:40.847Z,3.49
2023-04-25T06:10:08.513Z,3.37
2023-04-25T06:12:35.223Z,3.65
2023-04-25T06:15:02.682Z,3.43
2023-04-25T06:17:30.582Z,3.47
2023-04-25T06:19:57.841Z,3.38
2023-04-25T06:22:24.581Z,3.61
2023-04-25T06:24:51.236Z,3.26
2023-04-25T06:27:17.967Z,3.24
2023-04-25T06:29:44.650Z,3.27
2023-04-25T06:32:11.363Z,3.66
2023-04-25T06:34:38.115Z,3.16
2023-04-25T06:37:04.779Z,3.14
2023-04-25T06:39:31.492Z,3.19
2023-04-25T06:41:58.212Z,3.38
2023-04-25T06:44:27.197Z,3.14
2023-04-25T06:46:54.007Z,3.87
2023-04-25T06:49:20.782Z,4.87
2023-04-25T06:51:47.502Z,5.84
2023-04-25T06:54:14.152Z,6.19
2023-04-25T06:56:43.529Z,6.64
2023-04-25T06:59:10.405Z,7.19
2023-04-25T07:01:37.084Z,7.68
2023-04-25T07:04:04.502Z,7.84
2023-04-25T07:06:32.199Z,7.16
2023-04-25T07:08:59.053Z,6.93
2023-04-25T07:11:27.354Z,6.91
2023-04-25T07:13:54.065Z,7.18
2023-04-25T07:16:20.784Z,7.85
2023-04-25T07:18:47.554Z,7.07
2023-04-25T07:21:14.285Z,7.50
2023-04-25T07:23:42.012Z,7.41
2023-04-25T07:26:09.029Z,6.63
2023-04-25T07:28:35.747Z,6.67
2023-04-25T07:31:02.548Z,7.54
2023-04-25T07:33:29.355Z,6.74
2023-04-25T07:35:56.888Z,6.98
2023-04-25T07:38:23.968Z,8.10
2023-04-25T07:40:50.996Z,7.21
2023-04-25T07:43:17.959Z,7.50
2023-04-25T07:45:45.753Z,8.32
2023-04-25T07:48:12.556Z,8.35
2023-04-25T07:50:39.253Z,7.88
2023-04-25T07:53:05.894Z,7.86
2023-04-25T07:55:32.618Z,7.77
2023-04-25T07:57:59.282Z,7.32
2023-04-25T08:00:25.964Z,7.43
2023-04-25T08:02:52.837Z,7.52
2023-04-25T08:05:22.446Z,7.20
2023-04-25T08:07:49.703Z,7.38
2023-04-25T08:10:16.429Z,7.65
2023-04-25T08:12:43.218Z,6.91
2023-04-25T08:15:10.453Z,7.07
2023-04-25T08:17:37.449Z,6.69
2023-04-25T08:20:06.927Z,7.35
2023-04-25T08:22:33.733Z,7.87
2023-04-25T08:25:00.649Z,7.42
2023-04-25T08:27:27.381Z,8.04
2023-04-25T08:29:54.056Z,7.73
2023-04-25T08:32:22.273Z,7.50
2023-04-25T08:34:48.987Z,7.90
2023-04-25T08:37:15.657Z,7.92
2023-04-25T08:39:43.210Z,7.91
2023-04-25T08:42:11.191Z,7.31
2023-04-25T08:44:38.461Z,7.78
2023-04-25T08:47:06.825Z,8.04
2023-04-25T08:49:34.764Z,7.84
2023-04-25T08:52:04.924Z,7.91
2023-04-25T08:54:35.581Z,7.43
2023-04-25T08:57:05.290Z,7.61
2023-04-25T08:59:36.106Z,7.36
2023-04-25T09:02:04.525Z,7.74
2023-04-25T09:04:32.925Z,7.95
2023-04-25T09:06:59.936Z,7.86
2023-04-25T09:09:26.576Z,7.54
2023-04-25T09:11:55.406Z,7.29
2023-04-25T09:14:24.158Z,7.48
2023-04-25T09:17:01.857Z,6.31
2023-04-25T09:19:47.558Z,5.64
2023-04-25T09:22:14.416Z,5.68
2023-04-25T09:24:44.627Z,5.76
2023-04-25T09:27:24.173Z,5.91
2023-04-25T09:29:59.363Z,5.89
2023-04-25T09:32:26.836Z,6.86
2023-04-25T09:34:55.780Z,7.07
2023-04-25T09:37:30.186Z,7.05
2023-04-25T09:40:00.379Z,7.91
2023-04-25T09:42:30.062Z,7.41
2023-04-25T09:44:58.046Z,6.90
2023-04-25T09:47:29.550Z,7.68
2023-04-25T09:49:56.501Z,7.27
2023-04-25T09:52:26.129Z,7.93
2023-04-25T09:54:53.650Z,7.84
2023-04-25T09:57:22.434Z,7.84
2023-04-25T09:59:51.701Z,7.48
2023-04-25T10:02:21.708Z,7.13
2023-04-25T10:04:55.762Z,7.90
2023-04-25T10:07:32.539Z,8.25
2023-04-25T10:10:04.705Z,8.35
2023-04-25T10:12:35.187Z,7.29
2023-04-25T10:15:03.890Z,7.35
2023-04-25T10:17:31.112Z,7.13
2023-04-25T10:19:58.594Z,6.98
2023-04-25T10:22:32.296Z,7.16
2023-04-25T10:24:59.650Z,7.39
2023-04-25T10:27:29.405Z,8.06
2023-04-25T10:30:07.417Z,8.47
2023-04-25T10:32:34.592Z,8.27
2023-04-25T10:35:33.814Z,8.10
2023-04-25T10:38:01.610Z,8.06
2023-04-25T10:40:28.485Z,8.26
2023-04-25T10:42:57.104Z,8.45
2023-04-25T10:45:23.974Z,8.10
2023-04-25T10:47:50.738Z,7.77
2023-04-25T10:50:17.975Z,7.92
2023-04-25T10:52:45.736Z,7.26
2023-04-25T10:55:12.558Z,7.49
2023-04-25T10:57:45.154Z,7.34
2023-04-25T11:00:20.471Z,7.33
2023-04-25T11:02:54.366Z,7.98
2023-04-25T11:05:33.124Z,7.90
2023-04-25T11:08:07.878Z,8.22
2023-04-25T11:10:38.386Z,7.54
2023-04-25T11:13:06.010Z,6.71
2023-04-25T11:15:32.776Z,5.97
2023-04-25T11:17:59.547Z,5.73
2023-04-25T11:20:29.255Z,6.14
2023-04-25T11:23:00.239Z,6.94
2023-04-25T11:25:27.251Z,6.32
2023-04-25T11:27:57.028Z,7.16
2023-04-25T11:30:24.945Z,7.28
2023-04-25T11:32:53.210Z,7.30
2023-04-25T11:35:21.958Z,7.62
2023-04-25T11:37:48.890Z,7.71
2023-04-25T11:40:15.844Z,7.39
2023-04-25T11:42:47.663Z,7.77
2023-04-25T11:45:15.514Z,7.62
2023-04-25T11:47:42.504Z,8.21
2023-04-25T11:50:09.897Z,8.25
2023-04-25T11:52:40.306Z,8.63
2023-04-25T11:55:09.753Z,8.36
2023-04-25T11:57:40.019Z,8.95
2023-04-25T12:00:19.131Z,8.78
2023-04-25T12:02:49.013Z,9.07
2023-04-25T12:05:31.251Z,9.32
2023-04-25T12:08:11.166Z,9.32
2023-04-25T12:10:40.661Z,9.18
2023-04-25T12:13:21.048Z,8.59
2023-04-25T12:15:47.980Z,8.55
2023-04-25T12:18:14.748Z,8.92
2023-04-25T12:20:42.699Z,9.47
2023-04-25T12:23:09.400Z,9.40
2023-04-25T12:25:37.227Z,9.58
2023-04-25T12:28:20.747Z,9.81
2023-04-25T12:31:03.133Z,9.99
2023-04-25T12:33:40.880Z,9.43
2023-04-25T12:36:12.756Z,8.36
2023-04-25T12:38:41.308Z,8.10
2023-04-25T12:41:08.458Z,7.91
2023-04-25T12:43:35.245Z,7.16
2023-04-25T12:46:02.251Z,7.32
2023-04-25T12:48:28.958Z,7.20
2023-04-25T12:50:55.781Z,7.09
2023-04-25T12:53:25.228Z,7.22
2023-04-25T12:55:52.317Z,7.15
2023-04-25T12:58:20.991Z,7.47
2023-04-25T13:00:47.869Z,7.62
2023-04-25T13:03:14.713Z,8.04
2023-04-25T13:05:42.238Z,8.41
2023-04-25T13:08:09.222Z,8.23
2023-04-25T13:10:37.140Z,8.42
2023-04-25T13:13:03.972Z,8.05
2023-04-25T13:15:31.258Z,7.50
2023-04-25T13:17:57.970Z,7.68
2023-04-25T13:20:24.839Z,7.93
2023-04-25T13:22:51.625Z,7.55
2023-04-25T13:25:18.588Z,7.56
2023-04-25T13:27:45.847Z,7.61
2023-04-25T13:30:13.161Z,8.29
2023-04-25T13:32:40.635Z,8.40
2023-04-25T13:35:10.793Z,8.63
2023-04-25T13:37:39.020Z,8.38
2023-04-25T13:40:10.263Z,8.62
2023-04-25T13:42:38.269Z,8.18
2023-04-25T13:45:05.693Z,8.99
2023-04-25T13:47:32.493Z,9.00
2023-04-25T13:49:59.225Z,8.48
2023-04-25T13:52:26.880Z,8.77
2023-04-25T13:54:53.635Z,8.89
2023-04-25T13:57:20.778Z,8.82
2023-04-25T13:59:47.727Z,8.63
2023-04-25T14:02:14.585Z,8.46
2023-04-25T14:04:42.018Z,9.09
2023-04-25T14:07:09.504Z,9.37
2023-04-25T14:09:36.311Z,9.40
2023-04-25T14:12:03.260Z,8.88
2023-04-25T14:14:30.010Z,8.98
2023-04-25T14:16:58.120Z,8.85
2023-04-25T14:19:25.672Z,8.49
2023-04-25T14:21:52.371Z,8.79
2023-04-25T14:24:18.990Z,8.76
2023-04-25T14:26:45.820Z,8.40
2023-04-25T14:29:13.174Z,8.04
2023-04-25T14:31:41.415Z,8.16
2023-04-25T14:34:08.979Z,8.45
2023-04-25T14:36:37.186Z,7.74
2023-04-25T14:39:04.246Z,8.21
2023-04-25T14:41:31.356Z,8.13
2023-04-25T14:43:58.078Z,8.14
2023-04-25T14:46:24.920Z,7.84
2023-04-25T14:48:52.343Z,8.46
2023-04-25T14:51:19.161Z,8.52
2023-04-25T14:53:45.997Z,8.81
2023-04-25T14:56:13.626Z,8.88
2023-04-25T14:58:41.740Z,8.76
2023-04-25T15:01:09.343Z,8.25
2023-04-25T15:03:36.422Z,7.14
2023-04-25T15:06:03.453Z,7.37
2023-04-25T15:08:30.134Z,7.40
2023-04-25T15:10:57.020Z,7.06
2023-04-25T15:13:23.834Z,6.85
2023-04-25T15:15:52.429Z,7.22
2023-04-25T15:18:23.935Z,7.46
2023-04-25T15:20:52.469Z,7.41
2023-04-25T15:23:20.030Z,7.29
2023-04-25T15:25:47.200Z,7.46
2023-04-25T15:28:17.536Z,7.48
2023-04-25T15:30:47.563Z,7.67
2023-04-25T15:33:14.604Z,7.11
2023-04-25T15:35:41.437Z,7.59
2023-04-25T15:38:09.608Z,7.98
2023-04-25T15:40:36.499Z,7.92
2023-04-25T15:43:03.497Z,7.36
2023-04-25T15:45:32.376Z,7.60
2023-04-25T15:47:59.306Z,7.53
2023-04-25T15:50:26.441Z,7.68
2023-04-25T15:52:53.505Z,7.73
2023-04-25T15:55:21.908Z,7.87
2023-04-25T15:57:49.942Z,8.03
2023-04-25T16:00:22.141Z,8.00
2023-04-25T16:02:49.113Z,8.16
2023-04-25T16:05:16.538Z,7.67
2023-04-25T16:07:44.726Z,8.11
2023-04-25T16:10:12.552Z,7.98
2023-04-25T16:12:40.210Z,8.28
2023-04-25T16:15:07.841Z,8.11
2023-04-25T16:17:34.737Z,8.53
2023-04-25T16:20:10.149Z,7.96
2023-04-25T16:22:39.023Z,8.15
2023-04-25T16:25:06.436Z,7.98
2023-04-25T16:27:34.855Z,7.94
2023-04-25T16:30:02.691Z,7.71
2023-04-25T16:32:29.521Z,8.20
2023-04-25T16:34:58.255Z,7.94
2023-04-25T16:37:25.889Z,8.23
2023-04-25T16:39:52.831Z,8.20
2023-04-25T16:42:19.626Z,7.68
2023-04-25T16:44:46.343Z,7.46
2023-04-25T16:47:16.350Z,7.68
2023-04-25T16:49:44.808Z,7.77
2023-04-25T16:52:12.969Z,7.38
2023-04-25T16:54:39.709Z,7.25
2023-04-25T16:57:10.460Z,7.31
2023-04-25T16:59:38.497Z,7.53
2023-04-25T17:02:05.361Z,7.32
2023-04-25T17:04:32.341Z,7.01
2023-04-25T17:06:59.130Z,7.39
2023-04-25T17:09:26.798Z,7.57
2023-04-25T17:11:54.425Z,7.68
2023-04-25T17:14:21.132Z,7.71
2023-04-25T17:16:47.904Z,7.40
2023-04-25T17:19:14.709Z,7.14
2023-04-25T17:21:41.983Z,7.52
2023-04-25T17:24:12.253Z,7.39
2023-04-25T17:26:39.460Z,7.57
2023-04-25T17:29:06.282Z,7.23
2023-04-25T17:31:33.128Z,7.50
2023-04-25T17:34:00.000Z,7.25
2023-04-25T17:36:26.643Z,7.61
2023-04-25T17:38:53.397Z,7.35
2023-04-25T17:41:20.976Z,7.29
2023-04-25T17:43:48.920Z,7.44
2023-04-25T17:46:15.932Z,7.83
2023-04-25T17:48:42.680Z,7.57
2023-04-25T17:51:09.481Z,7.28
2023-04-25T17:53:36.611Z,7.14
2023-04-25T17:56:05.273Z,7.04
2023-04-25T17:58:33.545Z,7.29
2023-04-25T18:01:00.268Z,7.25
2023-04-25T18:03:27.136Z,7.58
2023-04-25T18:05:53.856Z,7.48
2023-04-25T18:08:22.686Z,7.41
2023-04-25T18:10:49.625Z,7.12
2023-04-25T18:13:17.395Z,7.19
2023-04-25T18:15:44.693Z,7.20
2023-04-25T18:18:19.804Z,6.98
2023-04-25T18:20:47.379Z,6.98
2023-04-25T18:23:14.055Z,7.22
2023-04-25T18:25:41.826Z,6.69
2023-04-25T18:28:09.136Z,6.43
2023-04-25T18:30:37.942Z,6.17
2023-04-25T18:33:04.936Z,6.60
2023-04-25T18:35:31.756Z,6.74
2023-04-25T18:37:58.417Z,6.61
2023-04-25T18:40:25.153Z,6.20
2023-04-25T18:42:51.901Z,6.72
2023-04-25T18:45:18.537Z,6.40
2023-04-25T18:47:46.814Z,6.22
2023-04-25T18:50:13.778Z,6.46
2023-04-25T18:52:41.327Z,6.24
2023-04-25T18:55:08.553Z,6.21
2023-04-25T18:57:35.235Z,6.30
2023-04-25T19:00:05.376Z,6.13
2023-04-25T19:02:32.328Z,6.24
2023-04-25T19:04:59.180Z,6.25
2023-04-25T19:07:28.282Z,6.28
2023-04-25T19:09:55.150Z,6.13
2023-04-25T19:12:21.953Z,6.26
2023-04-25T19:14:50.417Z,5.77
2023-04-25T19:17:17.177Z,6.24
2023-04-25T19:19:43.925Z,6.27
2023-04-25T19:22:11.680Z,6.03
2023-04-25T19:24:38.348Z,6.05
2023-04-25T19:27:05.141Z,6.24
2023-04-25T19:29:34.024Z,6.37
2023-04-25T19:32:03.181Z,6.27
2023-04-25T19:34:29.884Z,6.24
2023-04-25T19:36:56.620Z,6.22
2023-04-25T19:39:23.548Z,6.05
2023-04-25T19:41:50.328Z,5.97
2023-04-25T19:44:16.999Z,6.10
2023-04-25T19:46:46.745Z,6.00
2023-04-25T19:49:13.559Z,6.16
2023-04-25T19:51:40.764Z,5.75
2023-04-25T19:54:07.691Z,5.95
2023-04-25T19:56:34.474Z,5.97
2023-04-25T19:59:01.194Z,5.69
2023-04-25T20:01:28.131Z,5.74
2023-04-25T20:03:55.246Z,5.62
2023-04-25T20:06:23.373Z,5.60
2023-04-25T20:08:53.761Z,5.77
2023-04-25T20:11:21.650Z,5.81
2023-04-25T20:13:48.440Z,5.30
2023-04-25T20:16:20.084Z,5.56
2023-04-25T20:18:48.612Z,5.50
2023-04-25T20:21:17.679Z,5.45
2023-04-25T20:23:44.668Z,5.35
2023-04-25T20:26:12.705Z,5.13
2023-04-25T20:28:40.038Z,5.05
2023-04-25T20:31:06.867Z,5.12
2023-04-25T20:33:37.769Z,5.31
2023-04-25T20:36:05.121Z,4.93
2023-04-25T20:38:32.956Z,5.26
2023-04-25T20:41:00.488Z,5.23
2023-04-25T20:43:27.255Z,5.28
2023-04-25T20:45:55.081Z,4.93
2023-04-25T20:48:22.256Z,4.80
2023-04-25T20:50:49.049Z,4.91
2023-04-25T20:53:15.763Z,4.98
2023-04-25T20:55:42.766Z,4.98
2023-04-25T20:58:09.487Z,5.07
2023-04-25T21:00:36.457Z,4.66
2023-04-25T21:03:05.182Z,4.91
2023-04-25T21:05:32.258Z,5.22
2023-04-25T21:07:59.062Z,5.11
2023-04-25T21:10:25.739Z,4.78
2023-04-25T21:12:53.129Z,4.90
2023-04-25T21:15:22.723Z,4.97
2023-04-25T21:17:50.639Z,4.60
2023-04-25T21:20:19.160Z,4.59
2023-04-25T21:22:52.003Z,4.66
2023-04-25T21:25:31.290Z,4.63
2023-04-25T21:27:59.365Z,5.11
2023-04-25T21:30:26.283Z,4.56
2023-04-25T21:32:53.499Z,4.62
2023-04-25T21:35:21.371Z,5.00
2023-04-25T21:37:48.925Z,4.60
2023-04-25T21:40:15.758Z,4.79
2023-04-25T21:42:44.762Z,4.72
2023-04-25T21:45:12.103Z,4.86
2023-04-25T21:47:39.231Z,4.75
2023-04-25T21:50:06.578Z,4.57
2023-04-25T21:52:33.579Z,4.95
2023-04-25T21:55:00.414Z,4.80
2023-04-25T21:57:27.159Z,4.54
2023-04-25T21:59:53.831Z,4.24
2023-04-25T22:02:20.889Z,4.80
2023-04-25T22:04:48.085Z,4.55
2023-04-25T22:07:15.645Z,4.73
2023-04-25T22:09:53.775Z,4.21
2023-04-25T22:12:21.617Z,4.09
2023-04-25T22:14:48.970Z,4.38
2023-04-25T22:17:15.726Z,4.60
2023-04-25T22:19:43.309Z,4.23
2023-04-25T22:22:10.029Z,4.20
2023-04-25T22:24:36.717Z,4.57
2023-04-25T22:27:03.478Z,4.40
2023-04-25T22:29:30.130Z,4.40
2023-04-25T22:31:57.084Z,4.67
2023-04-25T22:34:23.921Z,4.78
2023-04-25T22:36:50.616Z,4.45
2023-04-25T22:39:17.316Z,4.74
2023-04-25T22:41:44.186Z,4.64
2023-04-25T22:44:11.297Z,4.53
2023-04-25T22:46:38.101Z,4.49
2023-04-25T22:49:05.307Z,4.81
2023-04-25T22:51:33.276Z,4.62
2023-04-25T22:54:00.727Z,4.52
2023-04-25T22:56:30.274Z,4.67
2023-04-25T22:58:57.333Z,4.44
2023-04-25T23:01:24.961Z,4.51
2023-04-25T23:03:51.920Z,4.36
2023-04-25T23:06:18.934Z,4.46
2023-04-25T23:08:45.686Z,4.07
2023-04-25T23:11:12.567Z,4.11
2023-04-25T23:13:39.502Z,4.09
2023-04-25T23:16:10.995Z,4.35
2023-04-25T23:18:39.404Z,4.38
2023-04-25T23:21:11.443Z,4.03
2023-04-25T23:23:38.828Z,4.01
2023-04-25T23:26:09.923Z,4.12
2023-04-25T23:28:41.839Z,4.04
2023-04-25T23:31:10.662Z,4.20
2023-04-25T23:33:37.561Z,3.60
2023-04-25T23:36:04.548Z,3.76
2023-04-25T23:38:32.324Z,3.89
2023-04-25T23:40:59.091Z,3.71
2023-04-25T23:43:25.983Z,3.84
2023-04-25T23:45:54.293Z,3.73
2023-04-25T23:48:21.018Z,3.45
2023-04-25T23:50:47.674Z,3.38
2023-04-25T23:53:14.418Z,3.64
2023-04-25T23:55:41.075Z,3.52
2023-04-25T23:58:08.097Z,3.55
